createdAt,value
2023-07-21T00:02:42.839Z,47.45
2023-07-21T00:05:45.647Z,47.48
2023-07-21T00:08:48.354Z,47.32
2023-07-21T00:11:51.104Z,47.52
2023-07-21T00:14:53.772Z,47.31
2023-07-21T00:17:56.661Z,47.33
2023-07-21T00:21:00.348Z,47.53
2023-07-21T00:24:03.745Z,47.53
2023-07-21T00:27:07.074Z,47.68
2023-07-21T00:30:10.368Z,47.92
2023-07-21T00:33:13.069Z,47.79
2023-07-21T00:36:15.751Z,47.85
2023-07-21T00:39:18.522Z,48.06
2023-07-21T00:42:21.952Z,48.01
2023-07-21T00:45:24.770Z,48.02
2023-07-21T00:48:27.558Z,47.99
2023-07-21T00:51:30.328Z,47.95
2023-07-21T00:54:33.332Z,47.97
2023-07-21T00:57:36.860Z,47.91
2023-07-21T01:00:42.032Z,47.92
2023-07-21T01:03:45.214Z,47.96
2023-07-21T01:06:48.911Z,47.93
2023-07-21T01:09:51.676Z,48.02
2023-07-21T01:12:54.391Z,48.25
2023-07-21T01:15:57.968Z,48.35
2023-07-21T01:19:02.425Z,48.31
2023-07-21T01:22:22.339Z,48.44
2023-07-21T01:25:26.246Z,48.41
2023-07-21T01:28:30.386Z,48.59
2023-07-21T01:31:36.418Z,48.50
2023-07-21T01:34:40.924Z,48.26
2023-07-21T01:37:46.494Z,48.62
2023-07-21T01:40:49.898Z,48.55
2023-07-21T01:43:54.756Z,48.54
2023-07-21T01:46:57.709Z,48.53
2023-07-21T01:50:01.441Z,48.50
2023-07-21T01:53:09.265Z,48.50
2023-07-21T01:56:29.880Z,48.65
2023-07-21T01:59:32.825Z,48.52
2023-07-21T02:02:35.943Z,48.47
2023-07-21T02:05:38.870Z,48.75
2023-07-21T02:08:41.669Z,48.81
2023-07-21T02:11:45.481Z,48.86
2023-07-21T02:14:48.175Z,48.95
2023-07-21T02:17:50.915Z,48.94
2023-07-21T02:20:53.847Z,49.01
2023-07-21T02:23:56.727Z,48.91
2023-07-21T02:27:00.674Z,49.06
2023-07-21T02:30:05.016Z,49.14
2023-07-21T02:33:07.779Z,49.15
2023-07-21T02:36:10.598Z,49.30
2023-07-21T02:39:13.357Z,49.21
2023-07-21T02:42:16.036Z,49.27
2023-07-21T02:45:19.075Z,49.41
2023-07-21T02:48:23.035Z,49.58
2023-07-21T02:51:25.820Z,49.47
2023-07-21T02:54:28.525Z,49.60
2023-07-21T02:57:31.339Z,49.70
2023-07-21T03:00:34.497Z,49.88
2023-07-21T03:03:37.667Z,49.73
2023-07-21T03:06:42.713Z,49.78
2023-07-21T03:09:45.877Z,49.71
2023-07-21T03:12:48.892Z,49.55
2023-07-21T03:15:54.746Z,49.75
2023-07-21T03:18:57.523Z,49.88
2023-07-21T03:22:01.905Z,50.02
2023-07-21T03:25:08.073Z,50.13
2023-07-21T03:28:11.101Z,50.28
2023-07-21T03:31:13.835Z,50.46
2023-07-21T03:34:16.672Z,50.62
2023-07-21T03:37:19.478Z,50.71
2023-07-21T03:40:22.166Z,50.80
2023-07-21T03:43:24.888Z,50.98
2023-07-21T03:46:27.877Z,51.20
2023-07-21T03:49:30.962Z,51.08
2023-07-21T03:52:33.645Z,51.23
2023-07-21T03:55:37.481Z,51.47
2023-07-21T03:58:40.169Z,51.69
2023-07-21T04:01:42.950Z,51.66
2023-07-21T04:04:46.963Z,51.66
2023-07-21T04:07:49.890Z,51.53
2023-07-21T04:10:52.515Z,51.84
2023-07-21T04:13:55.143Z,51.70
2023-07-21T04:16:57.802Z,51.84
2023-07-21T04:20:00.418Z,51.93
2023-07-21T04:23:03.546Z,51.99
2023-07-21T04:26:08.184Z,52.06
2023-07-21T04:29:21.410Z,51.99
2023-07-21T04:32:33.047Z,52.28
2023-07-21T04:35:35.736Z,52.14
2023-07-21T04:38:38.410Z,52.42
2023-07-21T04:41:41.659Z,52.47
2023-07-21T04:44:46.126Z,52.32
2023-07-21T04:47:50.773Z,52.46
2023-07-21T04:50:54.080Z,52.50
2023-07-21T04:53:56.830Z,52.50
2023-07-21T04:56:59.477Z,52.41
2023-07-21T05:00:03.717Z,52.40
2023-07-21T05:03:06.587Z,52.37
2023-07-21T05:06:10.885Z,52.42
2023-07-21T05:09:14.557Z,52.28
2023-07-21T05:12:17.190Z,52.31
2023-07-21T05:15:19.859Z,52.18
2023-07-21T05:18:22.511Z,52.27
2023-07-21T05:21:25.481Z,52.19
2023-07-21T05:24:28.193Z,52.09
2023-07-21T05:27:30.856Z,52.13
2023-07-21T05:30:33.499Z,52.10
2023-07-21T05:33:37.233Z,51.93
2023-07-21T05:36:40.165Z,52.10
2023-07-21T05:39:43.213Z,51.88
2023-07-21T05:42:49.084Z,51.76
2023-07-21T05:45:51.801Z,52.06
2023-07-21T05:48:54.469Z,51.77
2023-07-21T05:51:57.184Z,51.70
2023-07-21T05:55:00.081Z,51.61
2023-07-21T05:58:02.758Z,51.45
2023-07-21T06:01:05.570Z,51.50
2023-07-21T06:04:08.537Z,51.40
2023-07-21T06:07:11.328Z,51.12
2023-07-21T06:10:14.178Z,51.04
2023-07-21T06:13:16.815Z,51.00
2023-07-21T06:16:19.546Z,51.10
2023-07-21T06:19:22.227Z,50.96
2023-07-21T06:22:25.013Z,51.05
2023-07-21T06:25:27.877Z,51.01
2023-07-21T06:28:30.756Z,50.94
2023-07-21T06:31:33.485Z,51.09
2023-07-21T06:34:36.184Z,51.13
2023-07-21T06:37:41.779Z,51.18
2023-07-21T06:40:44.495Z,51.21
2023-07-21T06:43:47.263Z,51.12
2023-07-21T06:46:51.081Z,51.25
2023-07-21T06:49:53.811Z,51.33
2023-07-21T06:52:56.466Z,51.28
2023-07-21T06:55:59.174Z,51.24
2023-07-21T06:59:01.858Z,51.33
2023-07-21T07:02:04.829Z,51.45
2023-07-21T07:05:07.897Z,51.43
2023-07-21T07:08:11.842Z,51.45
2023-07-21T07:11:14.512Z,51.39
2023-07-21T07:14:17.178Z,51.43
2023-07-21T07:17:19.831Z,51.42
2023-07-21T07:20:23.094Z,51.34
2023-07-21T07:23:25.861Z,51.43
2023-07-21T07:26:33.184Z,51.32
2023-07-21T07:29:36.726Z,51.35
2023-07-21T07:32:39.487Z,51.05
2023-07-21T07:35:54.316Z,51.28
2023-07-21T07:38:57.321Z,51.20
2023-07-21T07:42:01.809Z,51.13
2023-07-21T07:45:04.769Z,51.07
2023-07-21T07:48:10.389Z,50.96
2023-07-21T07:51:13.139Z,50.71
2023-07-21T07:54:16.313Z,50.48
2023-07-21T07:57:20.601Z,50.45
2023-07-21T08:00:23.624Z,50.35
2023-07-21T08:03:26.928Z,50.29
2023-07-21T08:06:31.113Z,50.15
2023-07-21T08:09:34.044Z,50.06
2023-07-21T08:12:36.732Z,49.92
2023-07-21T08:15:44.211Z,50.02
2023-07-21T08:18:46.900Z,50.13
2023-07-21T08:21:49.570Z,49.91
2023-07-21T08:24:53.851Z,49.93
2023-07-21T08:27:56.606Z,49.88
2023-07-21T08:30:59.927Z,49.73
2023-07-21T08:34:02.974Z,49.56
2023-07-21T08:37:06.667Z,49.48
2023-07-21T08:40:10.052Z,49.35
2023-07-21T08:43:12.810Z,49.31
2023-07-21T08:46:16.646Z,49.11
2023-07-21T08:49:19.598Z,49.22
2023-07-21T08:52:22.283Z,49.17
2023-07-21T08:55:26.675Z,49.12
2023-07-21T08:58:30.144Z,48.94
2023-07-21T09:01:32.886Z,48.80
2023-07-21T09:04:36.047Z,48.73
2023-07-21T09:07:42.849Z,48.74
2023-07-21T09:10:45.551Z,48.63
2023-07-21T09:13:55.035Z,48.60
2023-07-21T09:16:58.663Z,48.58
2023-07-21T09:20:08.780Z,48.59
2023-07-21T09:23:11.647Z,48.37
2023-07-21T09:26:21.991Z,48.32
2023-07-21T09:29:25.979Z,47.87
2023-07-21T09:32:28.970Z,47.90
2023-07-21T09:35:31.957Z,47.76
2023-07-21T09:38:36.293Z,47.65
2023-07-21T09:41:41.916Z,47.72
2023-07-21T09:44:49.284Z,47.67
2023-07-21T09:47:52.271Z,47.90
2023-07-21T09:50:59.790Z,47.85
2023-07-21T09:54:06.299Z,47.61
2023-07-21T09:57:17.829Z,47.65
2023-07-21T10:00:21.495Z,47.60
2023-07-21T10:03:24.320Z,47.53
2023-07-21T10:06:32.427Z,47.44
2023-07-21T10:09:37.225Z,47.46
2023-07-21T10:12:51.001Z,47.30
2023-07-21T10:15:59.329Z,47.10
2023-07-21T10:19:13.818Z,46.78
2023-07-21T10:22:26.803Z,46.63
2023-07-21T10:25:29.512Z,46.57
2023-07-21T10:28:35.584Z,46.23
2023-07-21T10:31:40.011Z,46.23
2023-07-21T10:34:44.174Z,46.17
2023-07-21T10:38:11.937Z,46.02
2023-07-21T10:41:14.610Z,45.95
2023-07-21T10:44:18.439Z,45.80
2023-07-21T10:47:23.988Z,45.87
2023-07-21T10:50:26.925Z,45.73
2023-07-21T10:53:30.099Z,45.71
2023-07-21T10:56:52.744Z,45.49
2023-07-21T10:59:55.590Z,45.59
2023-07-21T11:02:58.660Z,45.41
2023-07-21T11:06:02.243Z,44.92
2023-07-21T11:09:05.334Z,44.89
2023-07-21T11:12:08.607Z,44.48
2023-07-21T11:15:11.583Z,44.60
2023-07-21T11:18:14.342Z,44.52
2023-07-21T11:21:17.113Z,44.17
2023-07-21T11:24:23.975Z,43.99
2023-07-21T11:27:30.597Z,43.74
2023-07-21T11:30:33.331Z,43.89
2023-07-21T11:33:50.028Z,43.83
2023-07-21T11:36:59.265Z,43.60
2023-07-21T11:40:08.999Z,43.68
2023-07-21T11:43:11.614Z,43.41
2023-07-21T11:46:27.107Z,43.52
2023-07-21T11:49:29.881Z,43.37
2023-07-21T11:52:34.892Z,43.34
2023-07-21T11:55:38.450Z,43.20
2023-07-21T11:58:41.181Z,43.10
2023-07-21T12:01:44.261Z,42.90
2023-07-21T12:04:47.309Z,42.71
2023-07-21T12:07:50.042Z,42.67
2023-07-21T12:10:52.767Z,42.59
2023-07-21T12:13:55.535Z,42.39
2023-07-21T12:16:58.464Z,42.38
2023-07-21T12:20:01.378Z,42.14
2023-07-21T12:23:04.277Z,42.10
2023-07-21T12:26:09.445Z,41.95
2023-07-21T12:29:13.359Z,41.88
2023-07-21T12:32:18.722Z,41.73
2023-07-21T12:35:21.666Z,41.52
2023-07-21T12:38:24.540Z,41.64
2023-07-21T12:41:27.741Z,41.33
2023-07-21T12:44:30.898Z,41.47
2023-07-21T12:47:34.505Z,41.60
2023-07-21T12:50:37.255Z,41.30
2023-07-21T12:53:39.888Z,40.80
2023-07-21T12:56:42.775Z,40.69
2023-07-21T12:59:45.385Z,40.45
2023-07-21T13:02:48.196Z,40.70
2023-07-21T13:05:56.619Z,40.44
2023-07-21T13:09:00.263Z,40.42
2023-07-21T13:12:03.781Z,40.17
2023-07-21T13:15:06.876Z,40.21
2023-07-21T13:18:09.871Z,40.35
2023-07-21T13:21:12.662Z,39.99
2023-07-21T13:24:15.430Z,39.91
2023-07-21T13:27:18.127Z,39.69
2023-07-21T13:30:20.781Z,39.69
2023-07-21T13:33:23.455Z,39.66
2023-07-21T13:36:26.343Z,39.58
2023-07-21T13:39:29.633Z,39.69
2023-07-21T13:42:32.782Z,39.66
2023-07-21T13:45:35.488Z,39.64
2023-07-21T13:48:38.528Z,39.60
2023-07-21T13:51:42.171Z,39.54
2023-07-21T13:54:45.144Z,39.32
2023-07-21T13:57:47.983Z,39.28
2023-07-21T14:00:51.353Z,39.08
2023-07-21T14:03:55.943Z,38.95
2023-07-21T14:06:59.247Z,38.51
2023-07-21T14:10:02.792Z,38.57
2023-07-21T14:13:06.090Z,38.55
2023-07-21T14:16:10.283Z,38.36
2023-07-21T14:19:14.017Z,38.31
2023-07-21T14:22:16.719Z,38.41
2023-07-21T14:25:20.283Z,38.38
2023-07-21T14:28:22.985Z,38.44
2023-07-21T14:31:26.482Z,38.28
2023-07-21T14:34:29.308Z,38.29
2023-07-21T14:37:31.959Z,38.44
2023-07-21T14:40:35.456Z,37.97
2023-07-21T14:43:38.712Z,38.06
2023-07-21T14:46:42.004Z,38.18
2023-07-21T14:49:44.800Z,38.01
2023-07-21T14:52:48.068Z,38.20
2023-07-21T14:55:50.948Z,38.19
2023-07-21T14:58:53.699Z,38.43
2023-07-21T15:01:58.665Z,38.36
2023-07-21T15:05:01.479Z,38.39
2023-07-21T15:08:04.602Z,38.48
2023-07-21T15:11:08.678Z,38.86
2023-07-21T15:14:11.484Z,38.86
2023-07-21T15:17:14.274Z,39.23
2023-07-21T15:20:17.733Z,39.40
2023-07-21T15:23:21.461Z,39.55
2023-07-21T15:26:24.777Z,39.67
2023-07-21T15:29:29.684Z,39.67
2023-07-21T15:32:32.582Z,39.78
2023-07-21T15:35:45.932Z,40.03
2023-07-21T15:38:48.848Z,40.15
2023-07-21T15:41:51.901Z,40.30
2023-07-21T15:44:54.988Z,40.36
2023-07-21T15:47:57.818Z,40.42
2023-07-21T15:51:00.864Z,40.39
2023-07-21T15:54:16.326Z,40.68
2023-07-21T15:57:19.895Z,40.78
2023-07-21T16:00:22.662Z,40.74
2023-07-21T16:03:27.232Z,40.80
2023-07-21T16:06:30.023Z,40.88
2023-07-21T16:09:32.708Z,40.85
2023-07-21T16:12:35.664Z,40.95
2023-07-21T16:15:38.391Z,41.11
2023-07-21T16:18:41.207Z,41.01
2023-07-21T16:21:43.922Z,40.81
2023-07-21T16:24:46.748Z,41.02
2023-07-21T16:27:55.261Z,40.65
2023-07-21T16:30:58.363Z,40.96
2023-07-21T16:34:01.068Z,40.99
2023-07-21T16:37:04.783Z,41.12
2023-07-21T16:40:08.674Z,41.26
2023-07-21T16:43:12.054Z,41.66
2023-07-21T16:46:14.869Z,41.82
2023-07-21T16:49:17.999Z,41.98
2023-07-21T16:52:20.626Z,42.46
2023-07-21T16:55:23.323Z,42.64
2023-07-21T16:58:28.285Z,42.76
2023-07-21T17:01:33.031Z,43.28
2023-07-21T17:04:36.945Z,43.61
2023-07-21T17:07:40.186Z,44.00
2023-07-21T17:10:42.990Z,44.21
2023-07-21T17:13:45.866Z,44.56
2023-07-21T17:16:48.762Z,45.06
2023-07-21T17:19:51.607Z,45.19
2023-07-21T17:22:54.275Z,45.51
2023-07-21T17:25:57.923Z,46.22
2023-07-21T17:29:00.731Z,46.57
2023-07-21T17:32:03.534Z,46.91
2023-07-21T17:35:07.353Z,47.37
2023-07-21T17:38:10.089Z,47.69
2023-07-21T17:41:12.939Z,47.86
2023-07-21T17:44:15.744Z,48.07
2023-07-21T17:47:18.682Z,48.10
2023-07-21T17:50:21.647Z,48.35
2023-07-21T17:53:24.505Z,48.22
2023-07-21T17:56:27.322Z,48.26
2023-07-21T17:59:30.040Z,48.48
2023-07-21T18:02:32.835Z,48.42
2023-07-21T18:05:37.525Z,48.54
2023-07-21T18:08:43.359Z,48.55
2023-07-21T18:11:46.124Z,48.56
2023-07-21T18:14:51.768Z,48.56
2023-07-21T18:17:55.693Z,48.68
2023-07-21T18:21:04.336Z,48.56
2023-07-21T18:24:09.818Z,48.56
2023-07-21T18:27:12.584Z,48.69
2023-07-21T18:30:15.379Z,48.51
2023-07-21T18:33:21.878Z,48.61
2023-07-21T18:36:24.602Z,48.54
2023-07-21T18:39:27.380Z,48.68
2023-07-21T18:42:30.021Z,48.73
2023-07-21T18:45:32.838Z,48.85
2023-07-21T18:48:35.505Z,48.72
2023-07-21T18:51:38.195Z,48.83
2023-07-21T18:54:53.167Z,49.04
2023-07-21T18:58:01.310Z,49.14
2023-07-21T19:01:04.199Z,49.54
2023-07-21T19:04:07.896Z,50.06
2023-07-21T19:07:10.601Z,50.17
2023-07-21T19:10:13.300Z,50.16
2023-07-21T19:13:15.962Z,50.61
2023-07-21T19:16:24.190Z,51.00
2023-07-21T19:19:26.997Z,51.32
2023-07-21T19:22:29.661Z,51.50
2023-07-21T19:25:32.300Z,51.67
2023-07-21T19:28:36.098Z,51.82
2023-07-21T19:31:40.148Z,51.82
2023-07-21T19:34:45.441Z,51.96
2023-07-21T19:37:48.141Z,52.00
2023-07-21T19:40:51.488Z,52.24
2023-07-21T19:43:54.158Z,52.34
2023-07-21T19:46:57.077Z,52.45
2023-07-21T19:49:59.716Z,52.47
2023-07-21T19:53:02.708Z,52.64
2023-07-21T19:56:14.563Z,52.84
2023-07-21T19:59:17.296Z,52.79
2023-07-21T20:02:20.111Z,52.97
2023-07-21T20:05:23.232Z,52.95
2023-07-21T20:08:25.930Z,52.97
2023-07-21T20:11:29.111Z,53.08
2023-07-21T20:14:32.204Z,53.14
2023-07-21T20:17:34.991Z,52.88
2023-07-21T20:20:41.252Z,53.03
2023-07-21T20:23:43.977Z,52.99
2023-07-21T20:26:47.073Z,53.13
2023-07-21T20:29:49.740Z,53.11
2023-07-21T20:32:52.508Z,53.01
2023-07-21T20:35:55.251Z,52.99
2023-07-21T20:38:57.890Z,53.19
2023-07-21T20:42:03.650Z,53.36
2023-07-21T20:45:07.505Z,53.81
2023-07-21T20:48:11.683Z,54.30
2023-07-21T20:51:14.370Z,54.46
2023-07-21T20:54:17.095Z,54.62
2023-07-21T20:57:19.789Z,54.92
2023-07-21T21:00:24.736Z,55.08
2023-07-21T21:03:27.553Z,55.23
2023-07-21T21:06:31.034Z,55.25
2023-07-21T21:09:35.018Z,55.19
2023-07-21T21:12:38.387Z,55.43
2023-07-21T21:15:41.014Z,55.40
2023-07-21T21:18:43.694Z,55.32
2023-07-21T21:21:46.315Z,55.53
2023-07-21T21:24:54.152Z,55.77
2023-07-21T21:27:57.231Z,56.01
2023-07-21T21:31:02.193Z,55.94
2023-07-21T21:34:04.882Z,56.27
2023-07-21T21:37:07.738Z,56.48
2023-07-21T21:40:11.537Z,56.29
2023-07-21T21:43:14.258Z,56.30
2023-07-21T21:46:17.106Z,56.23
2023-07-21T21:49:20.963Z,56.40
2023-07-21T21:52:23.598Z,56.48
2023-07-21T21:55:26.374Z,56.66
2023-07-21T21:58:33.423Z,56.77
2023-07-21T22:01:36.184Z,56.86
2023-07-21T22:04:38.903Z,56.96
2023-07-21T22:07:41.636Z,56.97
2023-07-21T22:10:44.330Z,56.75
2023-07-21T22:13:47.089Z,56.81
2023-07-21T22:16:49.809Z,56.85
2023-07-21T22:20:04.322Z,56.65
2023-07-21T22:23:13.884Z,56.64
2023-07-21T22:26:16.567Z,56.63
2023-07-21T22:29:19.335Z,56.59
2023-07-21T22:32:25.166Z,56.70
2023-07-21T22:35:29.093Z,56.68
2023-07-21T22:38:31.724Z,56.54
2023-07-21T22:41:34.510Z,56.60
2023-07-21T22:44:37.317Z,56.65
2023-07-21T22:47:40.073Z,56.62
2023-07-21T22:50:42.732Z,56.74
2023-07-21T22:53:45.459Z,56.96
2023-07-21T22:56:48.404Z,57.10
2023-07-21T22:59:51.114Z,57.41
2023-07-21T23:02:53.799Z,57.40
2023-07-21T23:05:56.837Z,57.35
2023-07-21T23:08:59.560Z,57.38
2023-07-21T23:12:03.031Z,57.96
2023-07-21T23:15:06.537Z,58.55
2023-07-21T23:18:09.507Z,58.59
2023-07-21T23:21:12.305Z,58.41
2023-07-21T23:24:15.784Z,58.52
2023-07-21T23:27:18.616Z,58.65
2023-07-21T23:30:21.372Z,58.70
2023-07-21T23:33:24.014Z,58.67
2023-07-21T23:36:28.185Z,58.84
2023-07-21T23:39:32.673Z,58.99
2023-07-21T23:42:35.408Z,59.48
2023-07-21T23:45:38.095Z,59.17
2023-07-21T23:48:40.736Z,59.52
2023-07-21T23:51:43.385Z,59.50
2023-07-21T23:54:46.060Z,59.71
2023-07-21T23:57:48.684Z,59.76
